MATARÓ (Maresme)





Hora UTC 16:10
Temperatura 15.3 ºC
Humitat 78.9 %
Pressió 1012.6 hPa
Pluja 0.3 mm
Velocitat vent 11.2 km/h
Direcció vent SSE
Radiació solar 148.4 W/m²

Dades diàries 2024-04-16



Hora UTC (hivern +1h; estiu +2h)
Temperatura (ºC) Humitat (%) Pressió (hPa) Velocitat vent (km/h) Precipitació (mm) Radiació solar (W/m²)
Hora UTC Aire Humitat Pressió Vel. Dir. Vel. Max Dir. Intent. màx 5 min. Rad. Sol.
00:05 14.9 88.9 1016.9 3.2 W 3.2 WSW 0.0 0.1
00:10 14.9 88.8 1016.8 1.9 WNW 3.5 WNW 0.0 0.1
00:15 14.8 89.2 1016.8 1.5 NW 3.2 NW 0.0 0.1
00:20 14.7 89.5 1016.7 0.9 NNW 2.5 NW 0.0 0.1
00:25 14.6 89.7 1016.7 0.1 ESE 1.4 ESE 0.0 0.1
00:30 14.6 90.1 1016.5 0.0 NNE 0.0 ESE 0.0 0.1
00:35 14.6 90.2 1016.4 0.5 E 2.8 E 0.0 0.1
00:40 14.6 90.3 1016.3 2.3 ESE 4.9 ESE 0.0 0.1
00:45 14.5 89.8 1016.3 0.2 ESE 2.1 ESE 0.0 0.1
00:50 14.4 90.2 1016.3 0.2 N 2.1 N 0.0 0.1
00:55 14.4 90.7 1016.2 0.2 NNW 1.4 N 0.0 0.1
01:00 14.5 90.7 1016.2 1.2 NNW 2.5 NNW 0.0 0.1
01:05 14.5 90.6 1016.1 2.2 NNW 4.9 NW 0.0 0.1
01:10 14.5 90.3 1016.1 1.5 NW 3.5 N 0.0 0.1
01:15 14.6 90.3 1016.1 2.4 WNW 4.2 WNW 0.0 0.1
01:20 14.6 90.3 1016.0 0.9 NW 2.1 NW 0.0 0.1
01:25 14.6 90.0 1015.9 2.0 WNW 3.2 WNW 0.0 0.1
01:30 14.7 89.7 1015.9 0.7 NW 2.5 NNW 0.0 0.1
01:35 14.8 89.6 1015.8 2.6 WNW 5.6 W 0.0 0.1
01:40 14.8 89.3 1015.7 0.9 NW 3.9 WNW 0.0 0.1
01:45 14.7 89.0 1015.7 1.1 NNW 2.8 WNW 0.0 0.1
01:50 14.6 89.1 1015.7 2.2 NW 4.6 NNW 0.0 0.1
01:55 14.6 89.8 1015.6 3.8 NNW 5.6 NNW 0.0 0.1
02:00 14.5 89.8 1015.6 1.6 NW 4.9 WNW 0.0 0.1
02:05 14.5 89.7 1015.5 0.5 NNW 2.1 NNW 0.0 0.1
02:10 14.6 89.9 1015.4 0.3 NW 2.5 NNW 0.0 0.1
02:15 14.6 89.8 1015.4 1.7 WSW 4.6 SW 0.0 0.1
02:20 14.6 89.7 1015.4 0.0 NNE 0.0 W 0.0 0.1
02:25 14.6 89.7 1015.4 0.2 NW 2.1 NNW 0.0 0.1
02:30 14.7 89.4 1015.5 1.9 WSW 4.6 WSW 0.0 0.1
02:35 14.8 89.1 1015.5 2.9 SSW 6.4 SSW 0.0 0.1
02:40 14.9 88.5 1015.4 4.4 SSW 6.7 S 0.0 0.1
02:45 15.0 88.3 1015.4 4.7 S 7.8 S 0.0 0.1
02:50 15.0 88.2 1015.3 3.4 S 6.0 SSW 0.0 0.1
02:55 15.0 88.1 1015.2 4.4 SSE 8.1 SSE 0.0 0.1
03:00 15.0 87.8 1015.2 5.7 SSE 8.1 SE 0.0 0.1
03:05 15.0 87.8 1015.2 4.3 SE 6.7 SSE 0.0 0.1
03:10 15.0 87.8 1015.1 3.6 SSE 5.6 SSE 0.0 0.1
03:15 15.0 87.8 1015.1 6.3 SSE 8.5 SE 0.0 0.1
03:20 15.0 87.6 1015.1 4.2 SSE 6.0 SE 0.0 0.1
03:25 15.0 87.7 1015.1 2.6 S 3.9 S 0.0 0.1
03:30 15.0 87.8 1015.0 2.7 S 6.4 S 0.0 0.1
03:35 15.0 87.8 1015.0 5.4 S 8.8 S 0.0 0.1
03:40 15.0 87.9 1015.0 5.2 SE 9.9 SE 0.0 0.1
03:45 15.0 87.9 1015.0 5.2 SE 9.9 SE 0.0 0.1
03:50 15.0 88.0 1015.0 3.6 SSE 7.1 S 0.0 0.1
03:55 15.0 88.3 1015.0 2.4 SSE 5.3 S 0.0 0.1
04:00 15.0 88.2 1014.9 4.7 SE 8.8 SSE 0.0 0.1
04:05 15.0 88.4 1014.9 4.5 SSE 9.2 SSE 0.0 0.1
04:10 15.0 88.5 1014.8 3.3 SE 6.4 SSE 0.0 0.1
04:15 15.0 88.5 1014.8 3.2 SE 6.4 SE 0.0 0.1
04:20 15.0 88.7 1014.7 4.2 S 9.2 SSW 0.0 0.1
04:25 14.9 86.9 1014.6 7.4 W 13.1 SSW 0.0 0.1
04:30 14.6 84.0 1014.4 5.7 WNW 10.9 W 0.0 0.1
04:35 14.4 82.3 1014.3 8.0 NW 14.1 NNW 0.0 0.1
04:40 14.2 82.7 1014.3 5.0 NW 7.8 WNW 0.0 0.1
04:45 14.2 83.7 1014.3 3.9 NW 5.6 WNW 0.0 0.1
04:50 14.1 84.1 1014.4 3.7 WNW 6.7 WNW 0.0 0.1
04:55 14.0 85.6 1014.4 7.1 NW 11.3 NNW 0.0 0.1
05:00 13.8 85.8 1014.4 7.5 NW 12.0 WNW 0.0 0.1
05:05 13.5 84.1 1014.3 6.7 NW 12.0 NNW 0.0 0.1
05:10 13.4 83.6 1014.2 7.1 NW 13.8 NW 0.1 0.2
05:15 13.2 82.4 1014.3 10.5 NNW 16.9 NNW 0.0 0.2
05:20 13.0 83.1 1014.5 10.0 NNW 14.8 NNW 0.1 0.4
05:25 12.7 80.9 1014.6 12.1 NNW 18.4 NW 0.1 0.6
05:30 12.4 81.6 1014.7 13.3 NNW 18.4 NNW 0.0 0.8
05:35 12.3 81.6 1014.8 12.6 NNW 19.4 N 0.0 1.0
05:40 12.2 81.8 1014.8 11.8 NNW 18.0 NNW 0.0 1.4
05:45 12.3 81.2 1014.8 13.3 NNW 17.6 NNW 0.0 2.2
05:50 12.4 80.9 1014.9 13.6 NNW 19.8 NW 0.0 2.0
05:55 12.5 79.6 1014.8 13.2 NNW 17.3 NNW 0.0 3.0
06:00 12.6 78.3 1014.6 10.0 NNW 14.8 NNW 0.0 4.8
06:05 12.7 78.5 1014.6 7.3 NW 11.3 NNW 0.0 6.5
06:10 12.6 79.7 1014.7 3.9 NW 6.7 WNW 0.0 9.3
06:15 12.5 75.2 1014.7 5.7 NW 12.4 NNW 0.0 13.4
06:20 12.6 72.5 1014.6 6.7 NNW 14.8 NNW 0.0 17.3
06:25 12.6 71.7 1014.5 8.5 NNW 14.1 NNW 0.0 28.6
06:30 12.8 69.4 1014.6 11.9 NNW 17.3 NNW 0.0 34.2
06:35 12.9 68.5 1014.6 13.0 NNW 17.3 NNW 0.0 46.7
06:40 13.0 67.4 1014.7 12.9 NNW 16.9 NNW 0.0 55.6
06:45 13.2 65.9 1014.7 12.0 NNW 18.7 NW 0.0 66.2
06:50 13.3 65.4 1014.6 11.8 NNW 17.6 NNW 0.0 75.3
06:55 13.4 65.0 1014.6 13.0 NNW 17.6 NNW 0.0 86.6
07:00 13.5 64.5 1014.5 14.3 NNW 19.1 NNW 0.0 104.9
07:05 13.6 64.5 1014.5 13.9 NNW 19.1 NNW 0.0 113.1
07:10 13.6 64.3 1014.5 15.1 NNW 21.2 NNW 0.0 145.4
07:15 13.7 64.8 1014.4 12.5 NNW 17.3 NNW 0.0 163.4
07:20 13.7 64.8 1014.4 12.1 NNW 16.9 NNW 0.0 152.0
07:25 13.8 64.7 1014.5 12.3 NW 18.4 NW 0.0 163.4
07:30 13.9 63.2 1014.4 13.3 NNW 20.5 NNW 0.0 185.5
07:35 14.0 63.1 1014.5 11.3 NNW 15.9 NNW 0.0 284.1
07:40 14.3 62.9 1014.5 8.6 NNW 15.9 NNW 0.0 435.8
07:45 14.7 61.9 1014.6 10.2 NNW 15.9 NW 0.0 454.5
07:50 14.9 61.1 1014.6 11.3 NNW 17.3 N 0.0 372.2
07:55 15.1 62.0 1014.6 8.0 NNW 12.4 NNW 0.0 234.7
08:00 15.2 62.3 1014.6 5.6 NW 12.0 NW 0.0 171.4
08:05 15.2 61.9 1014.6 7.3 NW 12.7 N 0.0 117.8
08:10 15.2 62.2 1014.6 4.5 NNW 8.5 NW 0.0 127.6
08:15 15.1 62.7 1014.7 7.1 NNW 9.9 NNW 0.0 135.0
08:20 15.1 63.4 1014.7 4.7 NNW 7.1 NNW 0.0 169.1
08:25 15.2 62.6 1014.7 3.7 NNW 6.7 NW 0.0 158.1
08:30 15.2 63.1 1014.8 2.6 NNW 4.9 NW 0.0 175.6
08:35 15.4 63.0 1014.8 2.2 W 4.6 W 0.0 227.7
08:40 15.5 63.8 1014.9 3.8 SSE 8.8 SE 0.0 257.4
08:45 15.7 63.5 1014.8 8.1 S 15.2 S 0.0 282.4
08:50 15.8 65.0 1014.8 8.5 S 13.4 SSE 0.0 345.8
08:55 15.9 65.9 1014.8 9.7 SE 14.5 SE 0.0 421.0
09:00 16.0 66.3 1014.9 10.2 SE 15.5 SE 0.0 509.1
09:05 16.1 66.8 1014.9 9.4 SE 13.8 SSE 0.0 463.0
09:10 16.1 66.7 1014.8 7.4 SSE 15.5 SSE 0.0 441.8
09:15 16.0 66.8 1014.8 12.0 SE 16.6 SE 0.0 288.6
09:20 15.8 67.9 1014.8 9.6 SE 13.8 SSE 0.0 514.7
09:25 16.1 64.4 1014.8 9.1 S 15.2 S 0.0 682.9
09:30 16.4 62.9 1014.8 11.7 SE 20.8 SE 0.0 675.6
09:35 16.7 62.0 1014.7 11.5 SSE 18.4 S 0.0 694.9
09:40 16.8 61.5 1014.7 11.6 SE 18.0 SSE 0.0 712.0
09:45 17.2 61.2 1014.7 9.6 SSE 17.6 SSE 0.0 740.7
09:50 17.3 60.7 1014.7 12.6 SSE 22.6 SE 0.0 764.7
09:55 17.1 62.7 1014.7 12.1 SSE 26.8 SSE 0.0 323.9
10:00 16.8 60.0 1014.7 14.1 SSE 21.9 SSE 0.0 304.1
10:05 16.3 59.3 1014.7 11.2 SSE 22.2 SSE 0.0 502.9
10:10 16.6 59.6 1014.6 13.2 SSE 23.6 S 0.0 772.8
10:15 16.9 61.7 1014.6 10.3 S 24.7 SSE 0.0 795.8
10:20 17.0 61.5 1014.6 11.9 SSE 20.1 S 0.0 856.0
10:25 17.1 60.9 1014.6 14.8 SSE 20.5 SSE 0.0 930.0
10:30 17.4 63.3 1014.7 12.3 SSE 26.8 SSE 0.0 846.0
10:35 17.0 65.8 1014.6 14.7 S 24.0 SSW 0.0 668.2
10:40 16.7 66.6 1014.6 15.0 S 28.2 SSE 0.0 879.0
10:45 17.0 66.6 1014.6 11.4 SSE 19.1 SE 0.0 807.0
10:50 17.1 65.6 1014.5 12.8 SE 21.9 SE 0.0 789.5
10:55 17.4 64.7 1014.5 12.8 SSE 21.5 SE 0.0 831.0
11:00 17.2 64.6 1014.4 16.9 SSE 28.2 SSE 0.0 818.0
11:05 16.8 66.0 1014.4 13.2 SSE 22.9 SSE 0.0 811.0
11:10 16.8 66.5 1014.3 11.3 S 19.8 S 0.0 842.0
11:15 16.8 67.1 1014.3 12.9 SSE 21.2 SE 0.0 836.0
11:20 17.0 67.2 1014.2 14.5 SSE 27.9 SE 0.0 885.0
11:25 16.9 68.0 1014.2 11.7 SSE 18.7 SSE 0.0 847.0
11:30 17.1 66.9 1014.2 15.2 SSE 24.7 S 0.0 876.0
11:35 17.1 67.1 1014.1 14.8 SSE 25.4 SSE 0.0 826.0
11:40 17.2 66.2 1014.1 14.8 S 23.6 S 0.0 843.0
11:45 17.3 66.3 1014.1 14.2 S 22.9 SSW 0.0 849.0
11:50 17.3 68.4 1014.1 11.4 S 23.3 SSW 0.0 890.0
11:55 17.4 69.4 1014.0 15.5 SSE 26.8 SSE 0.0 841.0
12:00 17.0 70.1 1013.9 17.8 SSE 26.1 SE 0.0 840.0
12:05 16.6 71.3 1013.9 18.2 SSE 34.9 SE 0.0 811.0
12:10 16.9 71.7 1013.8 17.7 SSE 29.6 SSE 0.0 848.0
12:15 16.8 71.9 1013.8 17.8 SSE 27.2 SE 0.0 830.0
12:20 16.6 72.7 1013.7 12.7 SSE 22.6 S 0.0 837.0
12:25 16.6 72.9 1013.7 15.8 SSE 25.4 SE 0.0 765.0
12:30 16.7 73.5 1013.7 10.7 SSE 19.1 ESE 0.0 858.0
12:35 17.0 71.6 1013.7 13.0 SE 21.9 ESE 0.0 806.0
12:40 16.8 72.0 1013.7 14.1 SE 23.6 SE 0.0 827.0
12:45 16.8 71.6 1013.7 13.7 SE 23.6 SE 0.0 823.0
12:50 16.9 71.0 1013.7 12.4 SE 24.0 ESE 0.0 795.8
12:55 16.9 71.3 1013.6 11.3 SE 25.8 SE 0.0 670.5
13:00 17.0 69.2 1013.6 9.7 SE 15.9 ESE 0.0 718.7
13:05 17.2 67.4 1013.5 12.5 S 20.5 S 0.0 839.0
13:10 17.4 64.6 1013.4 16.0 SSE 26.5 SE 0.0 869.0
13:15 17.3 61.9 1013.4 14.2 SSE 25.1 SSE 0.0 762.3
13:20 17.2 62.1 1013.4 15.9 SSE 22.2 SSE 0.0 767.2
13:25 17.0 62.4 1013.4 12.4 SSE 21.5 SSE 0.0 758.3
13:30 17.3 60.9 1013.3 13.8 SSE 21.9 SSE 0.0 749.1
13:35 17.2 60.1 1013.3 13.0 SSE 20.8 SSE 0.0 741.0
13:40 17.3 57.4 1013.3 12.6 SSW 21.5 SSE 0.0 733.2
13:45 17.2 54.6 1013.2 13.9 SSE 22.6 S 0.0 722.9
13:50 17.0 57.5 1013.1 12.7 S 20.5 S 0.0 712.3
13:55 17.2 56.8 1013.0 12.6 S 22.9 SSE 0.0 704.9
14:00 17.3 57.1 1013.0 13.6 SSE 24.7 SSE 0.0 695.3
14:05 17.1 55.5 1013.0 11.8 S 27.9 SE 0.0 647.9
14:10 16.9 54.8 1013.0 13.9 S 24.3 SE 0.0 675.4
14:15 16.9 55.2 1013.0 12.6 S 19.8 S 0.0 666.3
14:20 16.9 55.0 1012.9 10.8 S 21.2 SSE 0.0 656.3
14:25 17.1 54.7 1012.9 13.9 SSW 23.3 SSW 0.0 646.7
14:30 16.8 56.4 1012.9 13.3 SSW 25.8 SSW 0.0 633.4
14:35 16.8 57.8 1012.9 13.5 SSW 21.2 SSW 0.0 622.3
14:40 16.6 59.3 1012.9 11.2 S 20.5 S 0.0 611.5
14:45 16.7 59.7 1012.8 11.5 S 21.2 SSE 0.0 601.3
14:50 16.8 60.1 1012.8 12.5 SSW 21.9 SSW 0.0 589.9
14:55 16.9 61.1 1012.8 11.3 SSW 18.4 WSW 0.0 578.1
15:00 16.7 62.2 1012.8 13.1 S 24.3 SSW 0.0 566.8
15:05 16.7 63.5 1012.8 13.6 S 21.2 SSE 0.0 561.1
15:10 16.7 64.6 1012.7 13.1 SSW 25.1 SSW 0.0 566.4
15:15 16.9 65.3 1012.7 11.9 SSW 20.1 S 0.0 557.6
15:20 17.0 66.9 1012.6 11.9 SSW 20.5 SSE 0.0 413.2
15:25 16.7 69.0 1012.6 14.4 SSE 25.8 SE 0.0 260.8
15:30 16.1 71.2 1012.6 13.5 SSE 22.9 SSE 0.0 225.7
15:35 16.0 72.5 1012.6 16.3 SE 24.3 SE 0.0 227.5
15:40 15.9 73.7 1012.6 14.6 SSE 21.2 SSW 0.0 169.2
15:45 15.8 74.4 1012.6 10.1 S 17.6 S 0.0 183.3
15:50 15.8 75.0 1012.6 11.8 S 21.2 S 0.0 194.7
15:55 15.6 76.2 1012.5 14.3 S 20.8 SSW 0.0 140.6
16:00 15.4 77.5 1012.5 14.4 S 21.9 S 0.0 126.5
16:05 15.3 78.0 1012.5 13.9 SSE 22.2 SE 0.0 136.0
16:10 15.3 78.9 1012.6 11.2 SSE 17.3 SSE 0.0 148.4
Màxima 17.9 90.7 1016.9 18.2 SSE 34.9 SE 0.1 930.0
Mínima 12.1 54.6 1012.5
Total 0.3